Port Au Choix, Canada
Current Conditions -  °F | °C
As of 1:00 PM on Wednesday 26 Nov 2014 (Local Time) from CWDH Reporting Station
Scattered Clouds Scattered Clouds  
Wind Chill: 28°   Ceiling: Unl
Heat Index: 36°   Visibility: 9mi
Dew Point: 24°   Wind: 14mph
Humidity: 62%   Direction: 280°W
Pressure: 29.88"   Gusts: 20mph
Location:  50.72°N, 57.37°W
Report Text: CWDH 261600Z AUTO 28012G17KT 9SM SCT026 SCT040 02/M04 A2988 RMK SLP119 PK WND 28017/// T00241043 WSI/SWOB
Loading
Personal Weather Stations






























Interactive Weather Map New forecast layout! Learn more

10-Day Weather Forecast

Advertisements
Track Severe Weather on mobile